createdAt,value
2018-01-06T00:00:34.505Z,0
2018-01-06T00:01:44.673Z,0
2018-01-06T00:02:54.828Z,0
2018-01-06T00:04:05.065Z,0
2018-01-06T00:05:15.346Z,0
2018-01-06T00:06:25.337Z,0
2018-01-06T00:07:35.467Z,0
2018-01-06T00:08:45.626Z,0
2018-01-06T00:09:55.780Z,0
2018-01-06T00:11:05.940Z,0
2018-01-06T00:12:16.091Z,0
2018-01-06T00:13:26.345Z,0
2018-01-06T00:14:36.467Z,0
2018-01-06T00:15:46.597Z,0
2018-01-06T00:16:56.715Z,0
2018-01-06T00:18:06.912Z,0
2018-01-06T00:19:16.911Z,0
2018-01-06T00:20:27.144Z,0
2018-01-06T00:21:37.327Z,0
2018-01-06T00:22:47.247Z,0
2018-01-06T00:23:57.409Z,0
2018-01-06T00:25:07.185Z,0
2018-01-06T00:26:17.361Z,0
2018-01-06T00:27:27.567Z,0
2018-01-06T00:28:37.817Z,0
2018-01-06T00:29:48.062Z,0
2018-01-06T00:30:58.282Z,0
2018-01-06T00:32:08.490Z,0
2018-01-06T00:33:18.681Z,0
2018-01-06T00:34:28.871Z,0
2018-01-06T00:35:39.060Z,0
2018-01-06T00:36:49.384Z,0
2018-01-06T00:37:59.571Z,0
2018-01-06T00:39:09.797Z,0
2018-01-06T00:40:20.100Z,0
2018-01-06T00:41:30.300Z,0
2018-01-06T00:42:40.541Z,0
2018-01-06T00:43:50.684Z,0
2018-01-06T00:45:00.890Z,0
2018-01-06T00:46:11.126Z,0
2018-01-06T00:47:21.277Z,0
2018-01-06T00:48:31.519Z,0
2018-01-06T00:49:41.516Z,0
2018-01-06T00:50:51.667Z,0
2018-01-06T00:52:01.802Z,0
2018-01-06T00:53:11.939Z,0
2018-01-06T00:54:22.088Z,0
2018-01-06T00:55:32.240Z,0
2018-01-06T00:56:42.383Z,0
2018-01-06T00:57:52.520Z,0
2018-01-06T00:59:02.413Z,0
2018-01-06T01:00:12.360Z,0
2018-01-06T01:01:22.513Z,0
2018-01-06T01:02:33.626Z,0
2018-01-06T01:03:43.851Z,0
2018-01-06T01:04:53.732Z,0
2018-01-06T01:06:03.991Z,0
2018-01-06T01:07:14.187Z,0
2018-01-06T01:08:24.470Z,0
2018-01-06T01:09:34.655Z,0
2018-01-06T01:10:44.855Z,0
2018-01-06T01:11:55.001Z,0
2018-01-06T01:13:04.859Z,0
2018-01-06T01:14:15.039Z,0
2018-01-06T01:15:25.194Z,0
2018-01-06T01:16:35.337Z,0
2018-01-06T01:17:45.549Z,0
2018-01-06T01:18:55.729Z,0
2018-01-06T01:20:05.837Z,0
2018-01-06T01:21:15.995Z,0
2018-01-06T01:22:26.156Z,0
2018-01-06T01:23:36.438Z,0
2018-01-06T01:24:46.690Z,0
2018-01-06T01:25:56.844Z,0
2018-01-06T01:27:06.981Z,0
2018-01-06T01:28:17.118Z,0
2018-01-06T01:29:27.371Z,0
2018-01-06T01:30:37.491Z,0
2018-01-06T01:31:47.625Z,0
2018-01-06T01:32:57.771Z,0
2018-01-06T01:34:07.928Z,0
2018-01-06T01:35:18.108Z,0
2018-01-06T01:36:28.224Z,0
2018-01-06T01:37:38.520Z,0
2018-01-06T01:38:48.754Z,0
2018-01-06T01:39:58.977Z,0
2018-01-06T01:41:09.097Z,0
2018-01-06T01:42:19.248Z,0
2018-01-06T01:43:29.442Z,0
2018-01-06T01:44:39.611Z,0
2018-01-06T01:45:49.754Z,0
2018-01-06T01:46:59.918Z,0
2018-01-06T01:48:10.059Z,0
2018-01-06T01:49:20.278Z,0
2018-01-06T01:50:30.527Z,0
2018-01-06T01:51:40.714Z,0
2018-01-06T01:52:50.979Z,0
2018-01-06T01:54:00.965Z,0
2018-01-06T01:55:11.205Z,0
2018-01-06T01:56:21.182Z,0
2018-01-06T01:57:31.305Z,0
2018-01-06T01:58:41.474Z,0
2018-01-06T01:59:51.395Z,0
2018-01-06T02:01:01.531Z,0
2018-01-06T02:02:11.638Z,0
2018-01-06T02:03:21.793Z,0
2018-01-06T02:04:32.198Z,0
2018-01-06T02:05:42.002Z,0
2018-01-06T02:06:52.219Z,0
2018-01-06T02:08:02.327Z,0
2018-01-06T02:09:12.475Z,0
2018-01-06T02:10:22.776Z,0
2018-01-06T02:11:32.946Z,0
2018-01-06T02:12:43.219Z,0
2018-01-06T02:13:53.411Z,0
2018-01-06T02:15:03.555Z,0
2018-01-06T02:16:13.801Z,0
2018-01-06T02:17:24.032Z,0
2018-01-06T02:18:34.173Z,0
2018-01-06T02:19:44.288Z,0
2018-01-06T02:20:54.404Z,0
2018-01-06T02:22:04.282Z,0
2018-01-06T02:23:14.403Z,0
2018-01-06T02:24:24.544Z,0
2018-01-06T02:25:34.787Z,0
2018-01-06T02:26:44.963Z,0
2018-01-06T02:27:54.837Z,0
2018-01-06T02:29:04.963Z,0
2018-01-06T02:30:15.105Z,0
2018-01-06T02:31:25.279Z,0
2018-01-06T02:32:35.512Z,0
2018-01-06T02:33:45.660Z,0
2018-01-06T02:34:55.592Z,0
2018-01-06T02:36:05.714Z,0
2018-01-06T02:37:15.847Z,0
2018-01-06T02:38:25.986Z,0
2018-01-06T02:39:36.143Z,0
2018-01-06T02:40:46.322Z,0
2018-01-06T02:41:56.480Z,0
2018-01-06T02:43:06.665Z,0
2018-01-06T02:44:16.775Z,0
2018-01-06T02:45:26.993Z,0
2018-01-06T02:46:37.115Z,0
2018-01-06T02:47:47.389Z,0
2018-01-06T02:48:57.507Z,0
2018-01-06T02:50:07.707Z,0
2018-01-06T02:51:17.819Z,0
2018-01-06T02:52:27.952Z,0
2018-01-06T02:53:38.097Z,0
2018-01-06T02:54:48.287Z,0
2018-01-06T02:55:58.417Z,0
2018-01-06T02:57:08.679Z,0
2018-01-06T02:58:18.909Z,0
2018-01-06T02:59:29.129Z,0
2018-01-06T03:00:39.305Z,0
2018-01-06T03:01:49.458Z,0
2018-01-06T03:02:59.627Z,0
2018-01-06T03:04:09.965Z,0
2018-01-06T03:05:20.097Z,0
2018-01-06T03:06:30.278Z,0
2018-01-06T03:07:40.431Z,0
2018-01-06T03:08:50.564Z,0
2018-01-06T03:10:00.716Z,0
2018-01-06T03:11:10.903Z,0
2018-01-06T03:12:20.764Z,0
2018-01-06T03:13:30.904Z,0
2018-01-06T03:14:41.034Z,0
2018-01-06T03:15:51.207Z,0
2018-01-06T03:17:01.435Z,0
2018-01-06T03:18:11.605Z,0
2018-01-06T03:19:21.915Z,0
2018-01-06T03:20:32.111Z,0
2018-01-06T03:21:42.281Z,0
2018-01-06T03:22:52.394Z,0
2018-01-06T03:24:02.488Z,0
2018-01-06T03:25:12.615Z,0
2018-01-06T03:26:22.423Z,0
2018-01-06T03:27:32.548Z,0
2018-01-06T03:28:42.688Z,0
2018-01-06T03:29:52.920Z,0
2018-01-06T03:31:03.087Z,0
2018-01-06T03:32:13.209Z,0
2018-01-06T03:33:23.308Z,0
2018-01-06T03:34:33.457Z,0
2018-01-06T03:35:44.641Z,0
2018-01-06T03:36:54.774Z,0
2018-01-06T03:38:04.545Z,0
2018-01-06T03:39:14.747Z,0
2018-01-06T03:40:24.908Z,0
2018-01-06T03:41:35.025Z,0
2018-01-06T03:42:45.158Z,0
2018-01-06T03:43:55.263Z,0
2018-01-06T03:45:05.373Z,0
2018-01-06T03:46:15.484Z,0
2018-01-06T03:47:25.617Z,0
2018-01-06T03:48:35.728Z,0
2018-01-06T03:49:45.891Z,0
2018-01-06T03:50:56.037Z,0
2018-01-06T03:52:06.147Z,0
2018-01-06T03:53:16.274Z,0
2018-01-06T03:54:26.155Z,0
2018-01-06T03:55:36.413Z,0
2018-01-06T03:56:46.639Z,0
2018-01-06T03:57:56.865Z,0
2018-01-06T03:59:07.085Z,0
2018-01-06T04:00:17.252Z,0
2018-01-06T04:01:27.385Z,0
2018-01-06T04:02:37.334Z,0
2018-01-06T04:03:47.480Z,0
2018-01-06T04:04:57.598Z,0
2018-01-06T04:06:07.791Z,0
2018-01-06T04:07:18.042Z,0
2018-01-06T04:08:27.900Z,0
2018-01-06T04:09:38.076Z,0
2018-01-06T04:10:48.399Z,0
2018-01-06T04:11:58.617Z,0
2018-01-06T04:13:08.788Z,0
2018-01-06T04:14:18.929Z,0
2018-01-06T04:15:29.157Z,0
2018-01-06T04:16:39.267Z,0
2018-01-06T04:17:49.406Z,0
2018-01-06T04:18:59.510Z,0
2018-01-06T04:20:09.616Z,0
2018-01-06T04:21:19.390Z,0
2018-01-06T04:22:29.515Z,0
2018-01-06T04:23:39.344Z,0
2018-01-06T04:24:49.239Z,0
2018-01-06T04:25:59.343Z,0
2018-01-06T04:27:09.506Z,0
2018-01-06T04:28:19.675Z,0
2018-01-06T04:29:29.833Z,0
2018-01-06T04:30:40.024Z,0
2018-01-06T04:31:50.176Z,0
2018-01-06T04:33:00.273Z,0
2018-01-06T04:34:10.133Z,0
2018-01-06T04:35:20.073Z,0
2018-01-06T04:36:30.248Z,0
2018-01-06T04:37:40.615Z,0
2018-01-06T04:38:50.509Z,0
2018-01-06T04:40:00.620Z,0
2018-01-06T04:41:10.510Z,0
2018-01-06T04:42:20.645Z,0
2018-01-06T04:43:30.821Z,0
2018-01-06T04:44:40.938Z,0
2018-01-06T04:45:51.130Z,0
2018-01-06T04:47:01.262Z,0
2018-01-06T04:48:11.444Z,0
2018-01-06T04:49:21.665Z,0
2018-01-06T04:50:31.921Z,0
2018-01-06T04:51:41.854Z,0
2018-01-06T04:52:51.949Z,0
2018-01-06T04:54:02.130Z,0
2018-01-06T04:55:12.247Z,0
2018-01-06T04:56:22.146Z,0
2018-01-06T04:57:32.306Z,0
2018-01-06T04:58:42.523Z,0
2018-01-06T04:59:52.815Z,0
2018-01-06T05:01:03.105Z,0
2018-01-06T05:02:12.979Z,0
2018-01-06T05:03:23.094Z,0
2018-01-06T05:04:33.214Z,0
2018-01-06T05:05:43.156Z,0
2018-01-06T05:06:53.284Z,0
2018-01-06T05:08:03.416Z,0
2018-01-06T05:09:13.523Z,0
2018-01-06T05:10:23.727Z,0
2018-01-06T05:11:33.992Z,0
2018-01-06T05:12:44.153Z,0
2018-01-06T05:13:54.334Z,0
2018-01-06T05:15:04.453Z,0
2018-01-06T05:16:14.327Z,0
2018-01-06T05:17:24.444Z,0
2018-01-06T05:18:34.593Z,0
2018-01-06T05:19:44.725Z,0
2018-01-06T05:20:54.873Z,0
2018-01-06T05:22:05.077Z,0
2018-01-06T05:23:15.265Z,0
2018-01-06T05:24:25.499Z,0
2018-01-06T05:25:35.649Z,0
2018-01-06T05:26:45.549Z,0
2018-01-06T05:27:55.654Z,0
2018-01-06T05:29:05.784Z,0
2018-01-06T05:30:16.073Z,0
2018-01-06T05:31:26.190Z,0
2018-01-06T05:32:36.432Z,0
2018-01-06T05:33:46.612Z,0
2018-01-06T05:34:56.773Z,0
2018-01-06T05:36:06.876Z,0
2018-01-06T05:37:17.033Z,0
2018-01-06T05:38:27.275Z,0
2018-01-06T05:39:37.408Z,0
2018-01-06T05:40:47.617Z,0
2018-01-06T05:41:57.746Z,0
2018-01-06T05:43:07.896Z,0
2018-01-06T05:44:18.015Z,0
2018-01-06T05:45:28.142Z,0
2018-01-06T05:46:38.287Z,0
2018-01-06T05:47:48.517Z,0
2018-01-06T05:48:58.684Z,0
2018-01-06T05:50:08.797Z,0
2018-01-06T05:51:18.928Z,0
2018-01-06T05:52:29.054Z,0
2018-01-06T05:53:39.191Z,0
2018-01-06T05:54:49.299Z,0
2018-01-06T05:55:59.510Z,0
2018-01-06T05:57:09.692Z,0
2018-01-06T05:58:19.563Z,0
2018-01-06T05:59:29.664Z,0
2018-01-06T06:00:39.828Z,0
2018-01-06T06:01:50.032Z,0
2018-01-06T06:03:00.251Z,0
2018-01-06T06:04:10.394Z,0
2018-01-06T06:05:20.542Z,0
2018-01-06T06:06:30.650Z,0
2018-01-06T06:07:40.854Z,0
2018-01-06T06:08:51.025Z,0
2018-01-06T06:10:01.185Z,0
2018-01-06T06:11:12.320Z,0
2018-01-06T06:12:23.610Z,0
2018-01-06T06:13:33.736Z,0
2018-01-06T06:14:44.121Z,0
2018-01-06T06:15:54.261Z,0
2018-01-06T06:17:04.472Z,0
2018-01-06T06:18:14.720Z,0
2018-01-06T06:19:24.467Z,0
2018-01-06T06:20:34.327Z,0
2018-01-06T06:21:44.470Z,0
2018-01-06T06:22:54.701Z,0
2018-01-06T06:24:04.952Z,0
2018-01-06T06:25:15.132Z,0
2018-01-06T06:26:25.335Z,0
2018-01-06T06:27:35.509Z,0
2018-01-06T06:28:45.686Z,0
2018-01-06T06:29:55.809Z,0
2018-01-06T06:31:05.925Z,0
2018-01-06T06:32:15.592Z,0
2018-01-06T06:33:25.728Z,0
2018-01-06T06:34:36.006Z,0
2018-01-06T06:35:46.127Z,0
2018-01-06T06:36:56.235Z,0
2018-01-06T06:38:06.377Z,0
2018-01-06T06:39:16.501Z,0
2018-01-06T06:40:26.629Z,0
2018-01-06T06:41:36.862Z,0
2018-01-06T06:42:46.991Z,0
2018-01-06T06:43:57.223Z,0
2018-01-06T06:45:06.716Z,0
2018-01-06T06:46:16.817Z,0
2018-01-06T06:47:26.983Z,0
2018-01-06T06:48:36.524Z,0
2018-01-06T06:49:46.799Z,0
2018-01-06T06:50:56.669Z,0
2018-01-06T06:52:06.788Z,0
2018-01-06T06:53:16.909Z,0
2018-01-06T06:54:27.029Z,0
2018-01-06T06:55:37.145Z,0
2018-01-06T06:56:47.259Z,0
2018-01-06T06:57:57.113Z,0
2018-01-06T06:59:07.236Z,0
2018-01-06T07:00:17.415Z,0
2018-01-06T07:01:27.554Z,0
2018-01-06T07:02:37.790Z,0
2018-01-06T07:03:47.987Z,0
2018-01-06T07:04:58.173Z,0
2018-01-06T07:06:08.360Z,0
2018-01-06T07:07:18.588Z,0
2018-01-06T07:08:28.737Z,0
2018-01-06T07:09:38.844Z,0
2018-01-06T07:10:48.988Z,0
2018-01-06T07:11:59.145Z,5
2018-01-06T07:13:09.289Z,5
2018-01-06T07:14:19.501Z,5
2018-01-06T07:15:29.655Z,5
2018-01-06T07:16:39.896Z,5
2018-01-06T07:17:50.025Z,5
2018-01-06T07:19:00.134Z,5
2018-01-06T07:20:10.248Z,5
2018-01-06T07:21:20.376Z,10
2018-01-06T07:22:30.538Z,10
2018-01-06T07:23:40.663Z,10
2018-01-06T07:24:50.836Z,10
2018-01-06T07:26:00.932Z,15
2018-01-06T07:27:11.071Z,15
2018-01-06T07:28:21.296Z,15
2018-01-06T07:29:31.509Z,15
2018-01-06T07:30:41.743Z,20
2018-01-06T07:31:51.957Z,20
2018-01-06T07:33:02.089Z,20
2018-01-06T07:34:12.348Z,20
2018-01-06T07:35:22.495Z,25
2018-01-06T07:36:32.767Z,25
2018-01-06T07:37:42.941Z,25
2018-01-06T07:38:52.898Z,30
2018-01-06T07:40:03.117Z,30
2018-01-06T07:41:13.297Z,30
2018-01-06T07:42:23.454Z,35
2018-01-06T07:43:33.311Z,40
2018-01-06T07:44:43.506Z,40
2018-01-06T07:45:53.627Z,40
2018-01-06T07:47:03.738Z,45
2018-01-06T07:48:13.929Z,45
2018-01-06T07:49:24.084Z,45
2018-01-06T07:50:34.218Z,45
2018-01-06T07:51:44.356Z,45
2018-01-06T07:52:54.484Z,45
2018-01-06T07:54:04.615Z,50
2018-01-06T07:55:14.726Z,50
2018-01-06T07:56:24.929Z,50
2018-01-06T07:57:35.084Z,50
2018-01-06T07:58:45.226Z,50
2018-01-06T07:59:55.361Z,55
2018-01-06T08:01:05.581Z,60
2018-01-06T08:02:15.704Z,60
2018-01-06T08:03:25.883Z,65
2018-01-06T08:04:36.022Z,65
2018-01-06T08:05:46.015Z,60
2018-01-06T08:06:56.177Z,65
2018-01-06T08:08:06.334Z,65
2018-01-06T08:09:16.475Z,70
2018-01-06T08:10:26.655Z,75
2018-01-06T08:11:36.865Z,80
2018-01-06T08:12:47.027Z,80
2018-01-06T08:13:57.157Z,85
2018-01-06T08:15:07.284Z,85
2018-01-06T08:16:17.446Z,85
2018-01-06T08:17:27.698Z,90
2018-01-06T08:18:37.830Z,95
2018-01-06T08:19:47.682Z,100
2018-01-06T08:20:57.861Z,100
2018-01-06T08:22:08.016Z,100
2018-01-06T08:23:18.176Z,100
2018-01-06T08:24:28.417Z,100
2018-01-06T08:25:38.550Z,100
2018-01-06T08:26:48.760Z,100
2018-01-06T08:27:58.974Z,100
2018-01-06T08:29:09.100Z,105
2018-01-06T08:30:18.947Z,110
2018-01-06T08:31:29.290Z,115
2018-01-06T08:32:39.576Z,120
2018-01-06T08:33:49.754Z,120
2018-01-06T08:34:59.900Z,120
2018-01-06T08:36:10.098Z,120
2018-01-06T08:37:20.346Z,125
2018-01-06T08:38:30.546Z,135
2018-01-06T08:39:40.773Z,145
2018-01-06T08:40:50.675Z,150
2018-01-06T08:42:00.883Z,150
2018-01-06T08:43:11.001Z,150
2018-01-06T08:44:21.164Z,155
2018-01-06T08:45:31.326Z,155
2018-01-06T08:46:41.441Z,150
2018-01-06T08:47:51.612Z,150
2018-01-06T08:49:01.768Z,145
2018-01-06T08:50:11.904Z,140
2018-01-06T08:51:21.765Z,140
2018-01-06T08:52:31.887Z,140
2018-01-06T08:53:42.070Z,145
2018-01-06T08:54:52.230Z,145
2018-01-06T08:56:02.383Z,145
2018-01-06T08:57:12.645Z,145
2018-01-06T08:58:22.837Z,145
2018-01-06T08:59:32.999Z,150
2018-01-06T09:00:43.122Z,160
2018-01-06T09:01:53.293Z,165
2018-01-06T09:03:03.451Z,165
2018-01-06T09:04:13.648Z,165
2018-01-06T09:05:23.883Z,155
2018-01-06T09:06:34.139Z,150
2018-01-06T09:07:44.357Z,150
2018-01-06T09:08:54.481Z,150
2018-01-06T09:10:04.659Z,165
2018-01-06T09:11:14.820Z,170
2018-01-06T09:12:24.991Z,175
2018-01-06T09:13:34.887Z,175
2018-01-06T09:14:45.031Z,180
2018-01-06T09:15:56.235Z,190
2018-01-06T09:17:06.117Z,185
2018-01-06T09:18:16.280Z,195
2018-01-06T09:19:26.459Z,200
2018-01-06T09:20:36.627Z,205
2018-01-06T09:21:46.839Z,205
2018-01-06T09:22:57.020Z,200
2018-01-06T09:24:07.332Z,200
2018-01-06T09:25:17.157Z,200
2018-01-06T09:26:27.295Z,210
2018-01-06T09:27:37.476Z,215
2018-01-06T09:28:47.778Z,225
2018-01-06T09:29:57.654Z,235
2018-01-06T09:31:07.801Z,250
2018-01-06T09:32:17.964Z,245
2018-01-06T09:33:28.150Z,250
2018-01-06T09:34:38.302Z,265
2018-01-06T09:35:48.546Z,270
2018-01-06T09:36:58.761Z,280
2018-01-06T09:38:08.965Z,285
2018-01-06T09:39:19.114Z,275
2018-01-06T09:40:29.040Z,265
2018-01-06T09:41:39.172Z,250
2018-01-06T09:42:49.150Z,240
2018-01-06T09:43:59.301Z,235
2018-01-06T09:45:09.478Z,230
2018-01-06T09:46:19.623Z,230
2018-01-06T09:47:29.872Z,225
2018-01-06T09:48:40.085Z,225
2018-01-06T09:49:50.280Z,230
2018-01-06T09:51:00.478Z,240
2018-01-06T09:52:10.751Z,245
2018-01-06T09:53:20.902Z,255
2018-01-06T09:54:31.181Z,265
2018-01-06T09:55:41.383Z,270
2018-01-06T09:56:51.676Z,280
2018-01-06T09:58:01.895Z,265
2018-01-06T09:59:12.128Z,250
2018-01-06T10:00:22.368Z,245
2018-01-06T10:01:32.498Z,255
2018-01-06T10:02:42.699Z,255
2018-01-06T10:03:52.875Z,245
2018-01-06T10:05:03.124Z,220
2018-01-06T10:06:13.364Z,195
2018-01-06T10:07:23.568Z,190
2018-01-06T10:08:33.743Z,195
2018-01-06T10:09:43.889Z,200
2018-01-06T10:10:54.022Z,215
2018-01-06T10:12:04.204Z,230
2018-01-06T10:13:14.357Z,385
2018-01-06T10:14:24.511Z,405
2018-01-06T10:15:34.651Z,475
2018-01-06T10:16:44.871Z,405
2018-01-06T10:17:55.097Z,525
2018-01-06T10:19:04.981Z,320
2018-01-06T10:20:15.113Z,300
2018-01-06T10:21:25.330Z,330
2018-01-06T10:22:35.549Z,320
2018-01-06T10:23:45.761Z,350
2018-01-06T10:24:55.983Z,420
2018-01-06T10:26:06.147Z,520
2018-01-06T10:27:16.440Z,570
2018-01-06T10:28:26.661Z,650
2018-01-06T10:29:36.859Z,525
2018-01-06T10:30:47.030Z,590
2018-01-06T10:31:57.211Z,490
2018-01-06T10:33:07.390Z,500
2018-01-06T10:34:17.597Z,470
2018-01-06T10:35:27.878Z,410
2018-01-06T10:36:38.027Z,440
2018-01-06T10:37:48.298Z,370
2018-01-06T10:38:58.481Z,380
2018-01-06T10:40:08.686Z,375
2018-01-06T10:41:19.017Z,370
2018-01-06T10:42:29.218Z,355
2018-01-06T10:43:39.452Z,345
2018-01-06T10:44:49.683Z,340
2018-01-06T10:46:00.045Z,330
2018-01-06T10:47:10.232Z,330
2018-01-06T10:48:20.388Z,335
2018-01-06T10:49:30.568Z,325
2018-01-06T10:50:40.814Z,325
2018-01-06T10:51:51.049Z,325
2018-01-06T10:53:01.304Z,330
2018-01-06T10:54:11.534Z,330
2018-01-06T10:55:21.518Z,330
2018-01-06T10:56:31.647Z,340
2018-01-06T10:57:41.908Z,360
2018-01-06T10:58:52.085Z,365
2018-01-06T11:00:02.235Z,390
2018-01-06T11:01:12.404Z,425
2018-01-06T11:02:22.631Z,445
2018-01-06T11:03:32.780Z,365
2018-01-06T11:04:42.951Z,400
2018-01-06T11:05:53.113Z,360
2018-01-06T11:07:03.427Z,375
2018-01-06T11:08:13.558Z,345
2018-01-06T11:09:23.722Z,370
2018-01-06T11:10:33.890Z,355
2018-01-06T11:11:44.069Z,360
2018-01-06T11:12:54.253Z,355
2018-01-06T11:14:04.413Z,350
2018-01-06T11:15:14.606Z,365
2018-01-06T11:16:24.792Z,365
2018-01-06T11:17:35.008Z,375
2018-01-06T11:18:45.168Z,385
2018-01-06T11:19:55.450Z,380
2018-01-06T11:21:05.420Z,375
2018-01-06T11:22:15.586Z,555
2018-01-06T11:23:25.757Z,370
2018-01-06T11:24:35.717Z,370
2018-01-06T11:25:45.662Z,360
2018-01-06T11:26:55.836Z,385
2018-01-06T11:28:06.117Z,370
2018-01-06T11:29:16.280Z,375
2018-01-06T11:30:26.446Z,385
2018-01-06T11:31:36.697Z,410
2018-01-06T11:32:46.515Z,430
2018-01-06T11:33:56.688Z,430
2018-01-06T11:35:06.891Z,380
2018-01-06T11:36:17.064Z,375
2018-01-06T11:37:27.248Z,365
2018-01-06T11:38:37.550Z,385
2018-01-06T11:39:47.757Z,390
2018-01-06T11:40:58.011Z,395
2018-01-06T11:42:08.193Z,400
2018-01-06T11:43:18.384Z,420
2018-01-06T11:44:28.572Z,435
2018-01-06T11:45:38.854Z,460
2018-01-06T11:46:49.042Z,465
2018-01-06T11:47:59.223Z,445
2018-01-06T11:49:09.404Z,465
2018-01-06T11:50:19.312Z,420
2018-01-06T11:51:29.578Z,370
2018-01-06T11:52:39.797Z,345
2018-01-06T11:53:50.021Z,330
2018-01-06T11:55:00.239Z,325
2018-01-06T11:56:10.172Z,325
2018-01-06T11:57:20.309Z,325
2018-01-06T11:58:30.498Z,325
2018-01-06T11:59:40.707Z,320
2018-01-06T12:00:50.861Z,325
2018-01-06T12:02:01.037Z,340
2018-01-06T12:03:11.211Z,340
2018-01-06T12:04:21.403Z,350
2018-01-06T12:05:31.616Z,350
2018-01-06T12:06:41.813Z,355
2018-01-06T12:07:52.000Z,360
2018-01-06T12:09:02.028Z,365
2018-01-06T12:10:12.216Z,345
2018-01-06T12:11:22.401Z,330
2018-01-06T12:12:32.604Z,315
2018-01-06T12:13:42.828Z,310
2018-01-06T12:14:53.072Z,310
2018-01-06T12:16:03.297Z,300
2018-01-06T12:17:13.494Z,295
2018-01-06T12:18:23.710Z,295
2018-01-06T12:19:33.922Z,290
2018-01-06T12:20:44.166Z,295
2018-01-06T12:21:54.359Z,295
2018-01-06T12:23:04.586Z,295
2018-01-06T12:24:14.879Z,295
2018-01-06T12:25:25.065Z,290
2018-01-06T12:26:35.250Z,285
2018-01-06T12:27:45.435Z,275
2018-01-06T12:28:55.703Z,270
2018-01-06T12:30:05.913Z,265
2018-01-06T12:31:16.155Z,260
2018-01-06T12:32:26.355Z,255
2018-01-06T12:33:36.565Z,245
2018-01-06T12:34:46.810Z,240
2018-01-06T12:35:57.061Z,235
2018-01-06T12:37:07.278Z,230
2018-01-06T12:38:17.469Z,225
2018-01-06T12:39:27.681Z,230
2018-01-06T12:40:37.931Z,225
2018-01-06T12:41:48.123Z,215
2018-01-06T12:42:58.108Z,205
2018-01-06T12:44:08.519Z,195
2018-01-06T12:45:18.710Z,190
2018-01-06T12:46:28.885Z,185
2018-01-06T12:47:39.105Z,180
2018-01-06T12:48:49.301Z,180
2018-01-06T12:49:59.582Z,165
2018-01-06T12:51:09.890Z,160
2018-01-06T12:52:19.910Z,150
2018-01-06T12:53:29.851Z,150
2018-01-06T12:54:40.166Z,150
2018-01-06T12:55:50.353Z,150
2018-01-06T12:57:00.517Z,145
2018-01-06T12:58:10.720Z,145
2018-01-06T12:59:20.935Z,150
2018-01-06T13:00:31.182Z,155
2018-01-06T13:01:41.403Z,150
2018-01-06T13:02:51.614Z,140
2018-01-06T13:04:01.802Z,130
2018-01-06T13:05:12.001Z,125
2018-01-06T13:06:21.919Z,115
2018-01-06T13:07:32.072Z,115
2018-01-06T13:08:42.285Z,110
2018-01-06T13:09:52.207Z,110
2018-01-06T13:11:02.471Z,115
2018-01-06T13:12:12.686Z,110
2018-01-06T13:13:22.945Z,115
2018-01-06T13:14:33.250Z,115
2018-01-06T13:15:43.460Z,115
2018-01-06T13:16:53.744Z,115
2018-01-06T13:18:04.176Z,110
2018-01-06T13:19:14.344Z,110
2018-01-06T13:20:24.533Z,100
2018-01-06T13:21:34.734Z,95
2018-01-06T13:22:44.904Z,105
2018-01-06T13:23:55.049Z,110
2018-01-06T13:25:05.320Z,95
2018-01-06T13:26:15.526Z,90
2018-01-06T13:27:25.732Z,95
2018-01-06T13:28:36.004Z,95
2018-01-06T13:29:46.327Z,100
2018-01-06T13:30:56.501Z,100
2018-01-06T13:32:06.683Z,100
2018-01-06T13:33:16.897Z,100
2018-01-06T13:34:27.082Z,95
2018-01-06T13:35:37.243Z,90
2018-01-06T13:36:47.429Z,80
2018-01-06T13:37:57.735Z,70
2018-01-06T13:39:08.006Z,70
2018-01-06T13:40:18.293Z,70
2018-01-06T13:41:28.508Z,70
2018-01-06T13:42:38.657Z,80
2018-01-06T13:43:48.887Z,80
2018-01-06T13:44:59.036Z,80
2018-01-06T13:46:09.269Z,75
2018-01-06T13:47:19.499Z,70
2018-01-06T13:48:29.764Z,70
2018-01-06T13:49:39.676Z,70
2018-01-06T13:50:49.892Z,70
2018-01-06T13:52:00.069Z,75
2018-01-06T13:53:10.238Z,75
2018-01-06T13:54:20.170Z,75
2018-01-06T13:55:30.339Z,70
2018-01-06T13:56:40.553Z,70
2018-01-06T13:57:50.740Z,65
2018-01-06T13:59:00.982Z,65
2018-01-06T14:00:11.265Z,65
2018-01-06T14:01:21.415Z,65
2018-01-06T14:02:31.657Z,65
2018-01-06T14:03:41.800Z,60
2018-01-06T14:04:51.974Z,60
2018-01-06T14:06:02.243Z,55
2018-01-06T14:07:12.549Z,55
2018-01-06T14:08:22.729Z,55
2018-01-06T14:09:32.926Z,55
2018-01-06T14:10:43.090Z,50
2018-01-06T14:11:53.290Z,50
2018-01-06T14:13:03.530Z,50
2018-01-06T14:14:13.823Z,50
2018-01-06T14:15:23.986Z,45
2018-01-06T14:16:34.215Z,45
2018-01-06T14:17:44.425Z,45
2018-01-06T14:18:54.595Z,45
2018-01-06T14:20:04.794Z,40
2018-01-06T14:21:14.971Z,40
2018-01-06T14:22:24.886Z,40
2018-01-06T14:23:34.821Z,40
2018-01-06T14:24:44.950Z,40
2018-01-06T14:25:55.111Z,40
2018-01-06T14:27:05.325Z,40
2018-01-06T14:28:15.513Z,35
2018-01-06T14:29:25.710Z,30
2018-01-06T14:30:35.846Z,30
2018-01-06T14:31:46.105Z,25
2018-01-06T14:32:56.338Z,25
2018-01-06T14:34:06.540Z,25
2018-01-06T14:35:16.703Z,25
2018-01-06T14:36:26.914Z,20
2018-01-06T14:37:42.181Z,20
2018-01-06T14:38:52.342Z,20
2018-01-06T14:40:02.550Z,20
2018-01-06T14:41:12.741Z,20
2018-01-06T14:42:22.932Z,20
2018-01-06T14:43:33.100Z,20
2018-01-06T14:44:43.328Z,20
2018-01-06T14:45:53.495Z,20
2018-01-06T14:47:03.867Z,15
2018-01-06T14:48:14.198Z,15
2018-01-06T14:49:24.383Z,15
2018-01-06T14:50:34.521Z,15
2018-01-06T14:51:44.716Z,15
2018-01-06T14:52:54.878Z,15
2018-01-06T14:54:05.057Z,10
2018-01-06T14:55:15.278Z,10
2018-01-06T14:56:25.441Z,10
2018-01-06T14:57:35.789Z,10
2018-01-06T14:58:45.993Z,10
2018-01-06T14:59:56.946Z,10
2018-01-06T15:01:07.093Z,5
2018-01-06T15:02:17.263Z,5
2018-01-06T15:03:27.301Z,5
2018-01-06T15:04:37.566Z,5
2018-01-06T15:05:47.751Z,5
2018-01-06T15:06:57.915Z,5
2018-01-06T15:08:08.188Z,5
2018-01-06T15:09:18.439Z,5
2018-01-06T15:10:28.772Z,5
2018-01-06T15:11:39.002Z,5
2018-01-06T15:12:49.147Z,5
2018-01-06T15:13:59.381Z,0
2018-01-06T15:15:09.547Z,0
2018-01-06T15:16:19.897Z,0
2018-01-06T15:17:30.066Z,0
2018-01-06T15:18:40.326Z,0
2018-01-06T15:19:50.519Z,0
2018-01-06T15:21:00.693Z,0
2018-01-06T15:22:10.882Z,0
2018-01-06T15:23:21.166Z,0
2018-01-06T15:24:31.444Z,0
2018-01-06T15:25:41.693Z,0
2018-01-06T15:26:51.897Z,0
2018-01-06T15:28:02.111Z,0
2018-01-06T15:29:12.250Z,0
2018-01-06T15:30:22.090Z,0
2018-01-06T15:31:32.276Z,0
2018-01-06T15:32:42.592Z,0
2018-01-06T15:33:52.800Z,0
2018-01-06T15:35:03.003Z,0
2018-01-06T15:36:13.189Z,0
2018-01-06T15:37:23.382Z,0
2018-01-06T15:38:33.590Z,0
2018-01-06T15:39:43.803Z,0
2018-01-06T15:40:54.013Z,0
2018-01-06T15:42:04.320Z,0
2018-01-06T15:43:14.504Z,0
2018-01-06T15:44:24.809Z,0
2018-01-06T15:45:35.023Z,0
2018-01-06T15:46:45.212Z,0
2018-01-06T15:47:55.394Z,0
2018-01-06T15:49:05.588Z,0
2018-01-06T15:50:15.761Z,0
2018-01-06T15:51:25.993Z,0
2018-01-06T15:52:36.318Z,0
2018-01-06T15:53:46.514Z,0
2018-01-06T15:54:56.711Z,0
2018-01-06T15:56:06.894Z,0
2018-01-06T15:57:17.112Z,0
2018-01-06T15:58:27.305Z,0
2018-01-06T15:59:37.527Z,0
2018-01-06T16:00:47.717Z,0
2018-01-06T16:01:57.919Z,0
2018-01-06T16:03:08.290Z,0
2018-01-06T16:04:18.565Z,0
2018-01-06T16:05:28.744Z,0
2018-01-06T16:06:38.944Z,0
2018-01-06T16:07:49.147Z,0
2018-01-06T16:08:59.433Z,0
2018-01-06T16:10:09.619Z,0
2018-01-06T16:11:19.796Z,0
2018-01-06T16:12:29.717Z,0
2018-01-06T16:13:39.870Z,0
2018-01-06T16:14:50.031Z,0
2018-01-06T16:16:00.203Z,0
2018-01-06T16:17:10.424Z,0
2018-01-06T16:18:20.343Z,0
2018-01-06T16:19:30.535Z,0
2018-01-06T16:20:40.738Z,0
2018-01-06T16:21:50.896Z,0
2018-01-06T16:23:01.081Z,0
2018-01-06T16:24:11.432Z,0
2018-01-06T16:25:21.598Z,0
2018-01-06T16:26:31.781Z,0
2018-01-06T16:27:41.953Z,0
2018-01-06T16:28:52.201Z,0
2018-01-06T16:30:02.412Z,0
2018-01-06T16:31:12.650Z,0
2018-01-06T16:32:22.831Z,0
2018-01-06T16:33:33.093Z,0
2018-01-06T16:34:43.262Z,0
2018-01-06T16:35:53.445Z,0
2018-01-06T16:37:03.668Z,0
2018-01-06T16:38:13.877Z,0
2018-01-06T16:39:24.195Z,0
2018-01-06T16:40:34.488Z,0
2018-01-06T16:41:44.717Z,0
2018-01-06T16:42:54.897Z,0
2018-01-06T16:44:05.086Z,0
2018-01-06T16:45:15.044Z,0
2018-01-06T16:46:25.216Z,0
2018-01-06T16:47:35.372Z,0
2018-01-06T16:48:45.564Z,0